Time;durP1;ratioP1;P1;durP2;ratioP2;P2;SDS_P1;SDS_P2;PMS_P1;PMS_P2;Temp;Humidity;BMP_temperature;BMP_pressure;BME280_temperature;BME280_humidity;BME280_pressure;Samples;Min_cycle;Max_cycle;Signal;HPM_P1;HPM_P2
2023/04/08 00:00:57;;;;;;;12.40;10.63;;;;;;;4.74;100.00;102376.06;5003039;28;20686;-49
2023/04/08 00:03:22;;;;;;;12.52;10.30;;;;;;;4.73;100.00;102379.59;4996460;28;20186;-48
2023/04/08 00:05:47;;;;;;;13.10;10.65;;;;;;;4.81;100.00;102369.06;4996568;28;20172;-47
2023/04/08 00:08:13;;;;;;;14.30;10.40;;;;;;;4.80;100.00;102374.34;4996483;28;20291;-47
2023/04/08 00:10:39;;;;;;;11.23;10.02;;;;;;;4.76;100.00;102381.38;4996719;28;20176;-50
2023/04/08 00:13:04;;;;;;;13.40;10.43;;;;;;;4.78;100.00;102378.75;4998105;28;20564;-48
2023/04/08 00:15:30;;;;;;;13.52;10.60;;;;;;;4.78;100.00;102387.59;4995377;28;20173;-48
2023/04/08 00:17:55;;;;;;;13.05;10.02;;;;;;;4.79;100.00;102378.78;4993185;28;20227;-46
2023/04/08 00:20:22;;;;;;;12.27;10.82;;;;;;;4.78;100.00;102387.59;4997481;28;20204;-47
2023/04/08 00:22:48;;;;;;;17.50;10.35;;;;;;;4.78;100.00;102389.38;4980231;28;20173;-48
2023/04/08 00:25:13;;;;;;;13.60;10.68;;;;;;;4.78;100.00;102379.63;5002962;28;20223;-49
2023/04/08 00:27:39;;;;;;;12.63;9.85;;;;;;;4.80;100.00;102382.31;5000613;28;20278;-49
2023/04/08 00:30:05;;;;;;;16.63;10.98;;;;;;;4.77;100.00;102384.91;5004906;28;20246;-49
2023/04/08 00:32:31;;;;;;;12.90;10.25;;;;;;;4.79;100.00;102389.41;4992388;28;20544;-48
2023/04/08 00:34:57;;;;;;;14.35;10.95;;;;;;;4.82;100.00;102394.72;4996791;28;20713;-47
2023/04/08 00:37:23;;;;;;;12.10;10.40;;;;;;;4.86;100.00;102390.34;4996765;28;20205;-49
2023/04/08 00:39:50;;;;;;;14.20;10.05;;;;;;;4.86;100.00;102388.56;5000550;28;20181;-48
2023/04/08 00:42:16;;;;;;;12.32;10.65;;;;;;;4.85;100.00;102386.78;4984183;28;20320;-50
2023/04/08 00:44:41;;;;;;;12.60;10.90;;;;;;;4.90;100.00;102405.44;4987793;28;20267;-49
2023/04/08 00:47:11;;;;;;;15.35;10.95;;;;;;;4.83;100.00;102396.53;4998972;28;20212;-47
2023/04/08 00:49:37;;;;;;;11.60;10.32;;;;;;;4.79;100.00;102400.03;4978690;28;20184;-47
2023/04/08 00:52:02;;;;;;;12.18;10.43;;;;;;;4.80;100.00;102391.16;4990499;28;20263;-48
2023/04/08 00:54:30;;;;;;;13.18;10.57;;;;;;;4.87;100.00;102394.78;4991386;28;20189;-42
2023/04/08 00:57:00;;;;;;;15.88;11.38;;;;;;;4.83;100.00;102390.31;4984036;28;20215;-46
2023/04/08 00:59:28;;;;;;;13.18;11.15;;;;;;;4.86;100.00;102390.34;4991355;28;20192;-41
2023/04/08 01:02:05;;;;;;;12.57;10.23;;;;;;;4.83;100.00;102392.97;4991336;28;20193;-41
2023/04/08 01:04:57;;;;;;;12.52;11.23;;;;;;;4.91;100.00;102380.66;5000380;28;20709;-41
2023/04/08 01:07:30;;;;;;;14.38;10.27;;;;;;;4.90;100.00;102379.78;4985983;28;20235;-42
2023/04/08 01:10:01;;;;;;;14.32;10.98;;;;;;;4.88;100.00;102388.59;5000698;28;20228;-44
2023/04/08 01:12:29;;;;;;;14.50;10.77;;;;;;;4.81;100.00;102385.00;4987115;28;20201;-41
2023/04/08 01:15:03;;;;;;;14.93;11.00;;;;;;;4.83;100.00;102399.19;4988364;28;20181;-40
2023/04/08 01:17:30;;;;;;;13.50;10.80;;;;;;;4.85;100.00;102394.75;5000018;28;20718;-41
2023/04/08 01:19:59;;;;;;;14.30;11.50;;;;;;;4.83;100.00;102396.53;4980539;28;20201;-40
2023/04/08 01:22:53;;;;;;;12.82;10.98;;;;;;;4.79;100.00;102385.81;4990285;28;20200;-40
2023/04/08 01:25:23;;;;;;;11.75;10.52;;;;;;;4.87;100.00;102393.00;5000131;28;20244;-41
2023/04/08 01:27:49;;;;;;;12.90;11.20;;;;;;;4.86;100.00;102375.31;5000782;28;20209;-43
2023/04/08 01:30:18;;;;;;;14.25;10.75;;;;;;;4.83;100.00;102387.66;5003586;28;20191;-42
2023/04/08 01:32:45;;;;;;;15.18;11.55;;;;;;;4.87;100.00;102387.69;5003464;28;20196;-41
2023/04/08 01:35:11;;;;;;;16.50;12.43;;;;;;;4.86;100.00;102387.69;4995569;28;20289;-41
2023/04/08 01:37:38;;;;;;;14.77;11.25;;;;;;;4.86;100.00;102385.03;4989857;28;20208;-40
2023/04/08 01:40:06;;;;;;;12.60;10.77;;;;;;;4.85;100.00;102391.22;4980458;28;20628;-42
2023/04/08 01:42:33;;;;;;;13.65;11.23;;;;;;;4.84;100.00;102390.31;4995888;28;20263;-41
2023/04/08 01:45:00;;;;;;;13.70;12.20;;;;;;;4.81;100.00;102386.75;5001550;28;20164;-41
2023/04/08 01:47:27;;;;;;;13.43;11.57;;;;;;;4.90;100.00;102392.16;4982515;28;20271;-39
2023/04/08 01:49:54;;;;;;;16.48;12.40;;;;;;;4.90;100.00;102386.84;4992683;28;20200;-40
2023/04/08 01:52:21;;;;;;;14.30;11.95;;;;;;;4.81;100.00;102386.75;4991837;28;20283;-41
2023/04/08 01:54:47;;;;;;;14.50;12.05;;;;;;;4.83;100.00;102383.25;5003578;28;20189;-41
2023/04/08 01:57:23;;;;;;;13.18;11.45;;;;;;;4.78;100.00;102390.25;5000596;28;20586;-42
2023/04/08 01:59:51;;;;;;;15.32;11.85;;;;;;;4.79;100.00;102388.47;4995823;28;20177;-42
2023/04/08 02:02:20;;;;;;;13.93;11.73;;;;;;;4.81;100.00;102397.34;4991778;28;20188;-41
2023/04/08 02:04:46;;;;;;;14.23;12.05;;;;;;;4.76;100.00;102389.34;4995580;28;20720;-41
2023/04/08 02:07:11;;;;;;;15.63;11.75;;;;;;;4.75;100.00;102406.16;4969538;28;20307;-41
2023/04/08 02:09:37;;;;;;;13.73;11.50;;;;;;;4.79;100.00;102396.44;5000782;28;20656;-41
2023/04/08 02:12:03;;;;;;;14.38;12.27;;;;;;;4.75;100.00;102392.88;4998159;28;20209;-40
2023/04/08 02:14:29;;;;;;;14.38;12.50;;;;;;;4.81;100.00;102392.97;4991615;28;20189;-41
2023/04/08 02:17:07;;;;;;;15.88;12.65;;;;;;;4.87;100.00;102387.69;4998532;28;20205;-40
2023/04/08 02:19:59;;;;;;;15.32;12.98;;;;;;;4.74;100.00;102392.00;4998728;28;20207;-41
2023/04/08 02:22:35;;;;;;;19.15;13.73;;;;;;;4.79;100.00;102400.03;4998701;28;20268;-41
2023/04/08 02:25:03;;;;;;;19.33;14.00;;;;;;;4.75;100.00;102392.88;4991375;28;20273;-42
2023/04/08 02:27:32;;;;;;;16.48;13.80;;;;;;;4.70;100.00;102398.16;4996038;28;20668;-42
2023/04/08 02:30:01;;;;;;;17.73;14.57;;;;;;;4.67;100.00;102391.91;4997692;28;20608;-40
2023/04/08 02:32:28;;;;;;;17.13;13.23;;;;;;;4.73;100.00;102395.53;4987304;28;20191;-42
2023/04/08 02:34:55;;;;;;;16.67;13.85;;;;;;;4.77;100.00;102396.47;4996660;28;20234;-40
2023/04/08 02:37:22;;;;;;;19.27;14.40;;;;;;;4.66;100.00;102399.00;4987380;28;20541;-40
2023/04/08 02:39:47;;;;;;;21.35;16.25;;;;;;;4.61;100.00;102399.78;4997718;28;20294;-41
2023/04/08 02:42:13;;;;;;;21.92;15.90;;;;;;;4.62;100.00;102394.50;4978111;28;20192;-40
2023/04/08 02:44:38;;;;;;;20.60;16.45;;;;;;;4.58;100.00;102405.09;4987541;28;20272;-42
2023/04/08 02:47:03;;;;;;;19.27;16.50;;;;;;;4.57;100.00;102397.97;4997133;28;20279;-41
2023/04/08 02:49:29;;;;;;;18.90;15.90;;;;;;;4.60;100.00;102398.03;4995308;28;20695;-42
2023/04/08 02:51:56;;;;;;;19.38;16.45;;;;;;;4.63;100.00;102409.56;4983676;28;20294;-41
2023/04/08 02:54:21;;;;;;;21.02;16.27;;;;;;;4.63;100.00;102400.69;4983806;28;20783;-44
2023/04/08 02:56:47;;;;;;;22.85;16.02;;;;;;;4.63;100.00;102404.25;4983278;28;20189;-42
2023/04/08 02:59:12;;;;;;;21.48;17.85;;;;;;;4.62;100.00;102398.94;4997359;28;20562;-41
2023/04/08 03:01:38;;;;;;;22.20;17.48;;;;;;;4.69;100.00;102409.63;4999612;28;20659;-42
2023/04/08 03:04:03;;;;;;;25.15;16.90;;;;;;;4.65;100.00;102398.97;5000558;28;20714;-40
2023/04/08 03:06:31;;;;;;;23.63;15.75;;;;;;;4.70;100.00;102402.53;4997829;28;20185;-41
2023/04/08 03:08:56;;;;;;;23.77;17.30;;;;;;;4.62;100.00;102412.22;4994425;28;20239;-42
2023/04/08 03:11:21;;;;;;;23.88;17.52;;;;;;;4.73;100.00;102405.25;5000322;28;20188;-42
2023/04/08 03:13:47;;;;;;;23.30;17.05;;;;;;;4.57;100.00;102408.59;4996232;28;20698;-42
2023/04/08 03:16:12;;;;;;;21.13;16.85;;;;;;;4.56;100.00;102410.38;4996911;28;20193;-40
2023/04/08 03:18:39;;;;;;;21.50;16.73;;;;;;;4.58;100.00;102415.69;4997602;28;20208;-42
2023/04/08 03:21:04;;;;;;;25.10;18.63;;;;;;;4.51;100.00;102412.97;4995282;28;20259;-43
2023/04/08 03:23:30;;;;;;;32.55;19.25;;;;;;;4.34;100.00;102418.03;4998327;28;20177;-42
2023/04/08 03:25:55;;;;;;;25.75;18.83;;;;;;;4.33;100.00;102407.44;4995762;28;20264;-42
2023/04/08 03:28:21;;;;;;;23.00;18.60;;;;;;;4.38;100.00;102419.00;4997776;28;20295;-43
2023/04/08 03:30:46;;;;;;;26.92;18.83;;;;;;;4.28;100.00;102422.38;4998708;28;20605;-41
2023/04/08 03:33:12;;;;;;;24.98;19.40;;;;;;;4.26;100.00;102421.47;4997475;28;20303;-42
2023/04/08 03:35:37;;;;;;;25.15;19.10;;;;;;;4.28;100.00;102422.38;4998055;28;20240;-40
2023/04/08 03:38:03;;;;;;;26.55;20.55;;;;;;;4.21;100.00;102423.19;4999822;28;20396;-41
2023/04/08 03:40:29;;;;;;;28.17;19.40;;;;;;;4.25;100.00;102427.66;4991043;28;20680;-40
2023/04/08 03:42:54;;;;;;;26.50;19.00;;;;;;;4.32;100.00;102433.06;4996083;28;20177;-41
2023/04/08 03:45:20;;;;;;;28.20;19.48;;;;;;;4.36;100.00;102423.38;4996239;28;20640;-39
2023/04/08 03:47:45;;;;;;;24.63;18.92;;;;;;;4.32;100.00;102418.91;5000813;28;20566;-42
2023/04/08 03:50:11;;;;;;;29.73;19.13;;;;;;;4.35;100.00;102421.59;5000636;28;20185;-41
2023/04/08 03:52:36;;;;;;;24.75;17.58;;;;;;;4.37;100.00;102425.16;4998460;28;20196;-41
2023/04/08 03:55:02;;;;;;;25.50;18.38;;;;;;;4.34;100.00;102428.66;5001578;28;20719;-43
2023/04/08 03:57:27;;;;;;;27.05;17.17;;;;;;;4.29;100.00;102427.72;5005091;28;20227;-42
2023/04/08 03:59:53;;;;;;;24.00;17.08;;;;;;;4.31;100.00;102422.44;5000218;28;20239;-42
2023/04/08 04:02:19;;;;;;;25.50;16.95;;;;;;;4.36;100.00;102436.66;5001456;28;20656;-41
2023/04/08 04:04:44;;;;;;;29.55;16.73;;;;;;;4.31;100.00;102433.06;5002695;28;20240;-43
2023/04/08 04:07:10;;;;;;;28.73;18.15;;;;;;;4.26;100.00;102451.56;4999162;28;20216;-41
2023/04/08 04:09:35;;;;;;;26.42;18.63;;;;;;;4.28;100.00;102449.78;5000156;28;20201;-42
2023/04/08 04:12:01;;;;;;;28.85;17.58;;;;;;;4.25;100.00;102446.22;5002058;28;20200;-39
2023/04/08 04:14:26;;;;;;;26.73;19.08;;;;;;;4.16;100.00;102440.81;5001927;28;20243;-42
2023/04/08 04:16:52;;;;;;;28.00;18.48;;;;;;;4.21;100.00;102452.34;5005371;28;20216;-43
2023/04/08 04:19:17;;;;;;;26.95;18.48;;;;;;;4.21;100.00;102458.56;5000105;28;20569;-40
2023/04/08 04:21:43;;;;;;;23.00;17.55;;;;;;;4.25;100.00;102452.41;5004214;28;20204;-42
2023/04/08 04:24:08;;;;;;;26.23;17.42;;;;;;;4.20;100.00;102448.81;4999866;28;20210;-41
2023/04/08 04:26:34;;;;;;;24.20;18.23;;;;;;;4.23;100.00;102455.94;4999164;28;20189;-45
2023/04/08 04:28:59;;;;;;;25.45;18.35;;;;;;;4.20;100.00;102466.47;4999777;28;20189;-45
2023/04/08 04:31:28;;;;;;;26.33;19.40;;;;;;;4.19;100.00;102472.66;5000329;28;20177;-45
2023/04/08 04:33:53;;;;;;;28.70;18.60;;;;;;;4.15;100.00;102466.41;5002306;28;20361;-45
2023/04/08 04:36:19;;;;;;;27.50;19.92;;;;;;;4.19;100.00;102468.25;5007415;28;20197;-43
2023/04/08 04:38:45;;;;;;;33.15;19.10;;;;;;;4.14;100.00;102467.28;4988427;28;20259;-45
2023/04/08 04:41:10;;;;;;;26.08;19.88;;;;;;;4.09;100.00;102476.97;4995932;28;20192;-47
2023/04/08 04:43:36;;;;;;;27.73;19.80;;;;;;;4.18;100.00;102463.81;4999172;28;20287;-46
2023/04/08 04:46:02;;;;;;;25.23;20.15;;;;;;;4.25;100.00;102465.69;5000323;28;20169;-45
2023/04/08 04:48:28;;;;;;;29.63;21.08;;;;;;;4.22;100.00;102467.41;5001662;28;20229;-44
2023/04/08 04:50:55;;;;;;;24.83;19.65;;;;;;;4.13;100.00;102473.44;5000643;28;20595;-45
2023/04/08 04:53:21;;;;;;;26.80;19.83;;;;;;;4.13;100.00;102484.06;5000337;28;20214;-44
2023/04/08 04:55:46;;;;;;;27.70;19.95;;;;;;;4.03;100.00;102485.69;4995834;28;20573;-44
2023/04/08 04:58:12;;;;;;;25.23;19.45;;;;;;;3.96;100.00;102490.88;4997495;28;20253;-44
2023/04/08 05:00:37;;;;;;;27.77;20.65;;;;;;;3.99;100.00;102477.69;5002851;28;20294;-45
2023/04/08 05:03:03;;;;;;;25.75;20.58;;;;;;;3.96;100.00;102478.53;5001021;28;20185;-45
2023/04/08 05:05:28;;;;;;;27.85;21.13;;;;;;;3.94;100.00;102485.56;5000686;28;20672;-43
2023/04/08 05:07:54;;;;;;;26.88;20.33;;;;;;;4.03;100.00;102485.69;4999107;28;20208;-46
2023/04/08 05:10:20;;;;;;;27.20;20.23;;;;;;;3.95;100.00;102505.91;4996290;28;20587;-45
2023/04/08 05:12:45;;;;;;;26.73;19.40;;;;;;;3.90;100.00;102507.59;4988929;28;20211;-45
2023/04/08 05:15:10;;;;;;;25.63;19.27;;;;;;;3.89;100.00;102493.44;4998010;28;20193;-45
2023/04/08 05:17:36;;;;;;;25.17;17.98;;;;;;;4.00;100.00;102506.88;4999531;28;20344;-43
2023/04/08 05:20:01;;;;;;;33.03;20.42;;;;;;;3.97;100.00;102504.16;4998320;28;20216;-45
2023/04/08 05:22:27;;;;;;;28.25;19.45;;;;;;;3.74;100.00;102511.75;5003963;28;20231;-44
2023/04/08 05:24:52;;;;;;;24.27;19.23;;;;;;;3.97;100.00;102511.22;4999487;28;20679;-44
2023/04/08 05:27:20;;;;;;;24.95;19.48;;;;;;;3.83;100.00;102513.66;4997477;28;20220;-44
2023/04/08 05:29:46;;;;;;;23.15;18.27;;;;;;;3.81;100.00;102516.28;4996690;28;20264;-45
2023/04/08 05:32:11;;;;;;;24.30;18.88;;;;;;;3.86;100.00;102509.28;4999757;28;20249;-44
2023/04/08 05:34:37;;;;;;;24.27;16.83;;;;;;;3.93;100.00;102507.63;5000243;28;20224;-44
2023/04/08 05:37:02;;;;;;;25.10;16.95;;;;;;;3.84;100.00;102516.31;5000254;28;20216;-46
2023/04/08 05:39:28;;;;;;;23.60;17.05;;;;;;;3.88;100.00;102522.59;4997787;28;20262;-45
2023/04/08 05:41:54;;;;;;;22.00;16.75;;;;;;;4.00;100.00;102514.84;4994506;28;20205;-44
2023/04/08 05:44:19;;;;;;;19.90;16.15;;;;;;;4.04;100.00;102518.41;4998159;28;20660;-44
2023/04/08 05:46:44;;;;;;;21.33;16.98;;;;;;;4.06;100.00;102521.97;4997853;28;20177;-44
2023/04/08 05:49:11;;;;;;;26.90;17.40;;;;;;;3.89;100.00;102522.63;4999812;28;20192;-44
2023/04/08 05:51:37;;;;;;;23.15;16.90;;;;;;;3.89;100.00;102519.97;5001035;28;20774;-46
2023/04/08 05:54:03;;;;;;;23.10;17.58;;;;;;;3.95;100.00;102521.81;4994058;28;20241;-46
2023/04/08 05:56:29;;;;;;;22.67;17.00;;;;;;;3.98;100.00;102520.97;4997490;28;20235;-47
2023/04/08 05:58:55;;;;;;;19.15;15.25;;;;;;;4.03;100.00;102520.19;4998079;28;20181;-45
2023/04/08 06:01:20;;;;;;;16.88;15.00;;;;;;;4.06;100.00;102528.16;4997586;28;20279;-48
2023/04/08 06:06:24;;;;;;;19.70;14.80;;;;;;;3.98;100.00;102526.25;5027401;28;20227;-45
2023/04/08 06:08:50;;;;;;;21.77;15.02;;;;;;;3.86;100.00;102522.53;5050195;28;20199;-44
2023/04/08 06:11:16;;;;;;;16.50;14.77;;;;;;;3.81;100.00;102526.00;5044792;28;20234;-45
2023/04/08 06:13:41;;;;;;;19.75;14.23;;;;;;;3.79;100.00;102533.91;5049714;28;20211;-45
2023/04/08 06:16:16;;;;;;;21.08;15.57;;;;;;;3.65;100.00;102533.69;5049153;28;20183;-45
2023/04/08 06:18:42;;;;;;;17.77;15.88;;;;;;;3.73;100.00;102533.81;5047002;28;20649;-46
2023/04/08 06:21:07;;;;;;;20.92;16.20;;;;;;;3.78;100.00;102537.41;5047056;28;20178;-44
2023/04/08 06:23:33;;;;;;;22.45;16.33;;;;;;;3.80;100.00;102532.16;5049827;28;20183;-45
2023/04/08 06:25:59;;;;;;;22.30;16.15;;;;;;;3.76;100.00;102540.91;5043931;28;20183;-46
2023/04/08 06:28:24;;;;;;;26.73;18.73;;;;;;;3.77;100.00;102537.41;5049801;28;21122;-46
2023/04/08 06:30:50;;;;;;;25.17;18.05;;;;;;;3.85;100.00;102533.16;5045413;28;20191;-44
2023/04/08 06:33:15;;;;;;;25.02;17.42;;;;;;;3.95;100.00;102548.31;5048979;28;20237;-44
2023/04/08 06:35:41;;;;;;;24.58;17.45;;;;;;;3.94;100.00;102557.16;5046265;28;20293;-45
2023/04/08 06:38:06;;;;;;;23.38;17.05;;;;;;;4.01;100.00;102545.78;5049742;28;20367;-47
2023/04/08 06:40:32;;;;;;;23.33;17.75;;;;;;;3.98;100.00;102555.44;5049321;28;20241;-45
2023/04/08 06:42:57;;;;;;;22.85;16.52;;;;;;;3.97;100.00;102557.19;5049550;28;20191;-48
2023/04/08 06:45:34;;;;;;;23.08;17.30;;;;;;;4.04;100.00;102566.16;5048035;28;20186;-47
2023/04/08 06:48:00;;;;;;;21.23;16.65;;;;;;;4.00;100.00;102581.13;5046667;28;20752;-47
2023/04/08 06:50:25;;;;;;;18.95;15.88;;;;;;;3.91;100.00;102575.66;5047162;28;20274;-46
2023/04/08 06:52:51;;;;;;;21.35;16.63;;;;;;;4.00;100.00;102575.84;5048370;28;20230;-48
2023/04/08 06:55:16;;;;;;;19.10;15.50;;;;;;;4.01;100.00;102588.22;5049982;28;20198;-46
2023/04/08 06:57:42;;;;;;;22.95;16.77;;;;;;;3.95;100.00;102584.56;5046626;28;20735;-46
2023/04/08 07:00:08;;;;;;;22.95;16.95;;;;;;;3.94;100.00;102580.16;5048690;28;20187;-46
2023/04/08 07:02:34;;;;;;;25.95;18.42;;;;;;;3.93;100.00;102579.22;5048107;28;20195;-45
2023/04/08 07:05:00;;;;;;;24.13;17.65;;;;;;;3.99;100.00;102579.34;5046667;28;20571;-46
2023/04/08 07:07:25;;;;;;;21.65;16.73;;;;;;;3.99;100.00;102583.75;5048373;28;20207;-45
2023/04/08 07:09:51;;;;;;;24.98;17.20;;;;;;;4.03;100.00;102586.47;5053332;28;20549;-46
2023/04/08 07:12:16;;;;;;;25.33;16.15;;;;;;;3.99;100.00;102587.28;5048532;28;20242;-45
2023/04/08 07:14:42;;;;;;;22.10;15.45;;;;;;;4.00;100.00;102597.06;5047448;28;20175;-46
2023/04/08 07:17:07;;;;;;;19.65;15.35;;;;;;;4.13;100.00;102598.13;5048280;28;20265;-46
2023/04/08 07:19:33;;;;;;;20.55;15.02;;;;;;;3.99;100.00;102595.25;5049319;28;20198;-46
2023/04/08 07:21:58;;;;;;;23.80;16.63;;;;;;;3.96;100.00;102596.94;5046784;28;20195;-47
2023/04/08 07:24:24;;;;;;;20.45;15.30;;;;;;;4.00;100.00;102593.47;5047524;28;20372;-44
2023/04/08 07:26:50;;;;;;;19.73;15.80;;;;;;;4.07;100.00;102598.94;5049424;28;20701;-46
2023/04/08 07:29:15;;;;;;;22.77;16.55;;;;;;;4.25;100.00;102595.69;5048154;28;20187;-47
2023/04/08 07:31:44;;;;;;;22.08;16.38;;;;;;;4.27;100.00;102598.38;5042389;28;20289;-46
2023/04/08 07:34:10;;;;;;;19.70;15.48;;;;;;;4.42;100.00;102597.72;5048556;28;20260;-46
2023/04/08 07:36:35;;;;;;;19.92;15.38;;;;;;;4.58;100.00;102599.75;5048504;28;20190;-46
2023/04/08 07:39:02;;;;;;;23.60;15.77;;;;;;;4.49;100.00;102608.47;5049146;28;20195;-45
2023/04/08 07:41:27;;;;;;;18.92;15.38;;;;;;;4.50;100.00;102604.03;5047156;28;20633;-47
2023/04/08 07:43:53;;;;;;;20.70;15.10;;;;;;;4.63;100.00;102610.41;5044919;28;20378;-46
2023/04/08 07:46:19;;;;;;;18.85;13.70;;;;;;;4.71;100.00;102614.09;5048831;28;20202;-46
2023/04/08 07:48:45;;;;;;;16.98;13.10;;;;;;;4.62;100.00;102608.66;5048876;28;20226;-46
2023/04/08 07:51:11;;;;;;;15.52;12.20;;;;;;;4.63;100.00;102605.13;5048087;28;20649;-48
2023/04/08 07:53:37;;;;;;;17.13;12.43;;;;;;;4.60;100.00;102611.28;5048119;28;20586;-45
2023/04/08 07:56:10;;;;;;;19.00;14.38;;;;;;;4.68;100.00;102612.28;5039058;28;20186;-48
2023/04/08 07:58:35;;;;;;;18.17;12.75;;;;;;;4.64;100.00;102617.53;5044045;28;20207;-45
2023/04/08 08:01:01;;;;;;;18.95;13.95;;;;;;;4.59;100.00;102620.13;5048847;28;20221;-46
2023/04/08 08:03:26;;;;;;;20.67;13.85;;;;;;;4.85;100.00;102615.16;5047986;28;20284;-48
2023/04/08 08:05:52;;;;;;;16.73;13.88;;;;;;;4.42;100.00;102614.53;5048474;28;20191;-46
2023/04/08 08:08:17;;;;;;;21.33;15.05;;;;;;;4.60;100.00;102611.28;5048879;28;20578;-45
2023/04/08 08:10:43;;;;;;;18.10;14.52;;;;;;;4.43;100.00;102624.28;5049204;28;20524;-46
2023/04/08 08:13:08;;;;;;;17.55;13.80;;;;;;;4.60;100.00;102621.91;5047544;28;20202;-47
2023/04/08 08:15:34;;;;;;;16.70;12.32;;;;;;;4.44;100.00;102626.09;5047556;28;20274;-46
2023/04/08 08:17:59;;;;;;;14.20;11.57;;;;;;;4.44;100.00;102623.44;5046893;28;20446;-47
2023/04/08 08:20:25;;;;;;;14.32;10.60;;;;;;;4.45;100.00;102611.94;5048357;28;20194;-47
2023/04/08 08:22:51;;;;;;;13.35;11.07;;;;;;;4.45;100.00;102619.00;5044738;28;20279;-45
2023/04/08 08:25:16;;;;;;;14.18;10.35;;;;;;;4.47;100.00;102627.88;5046904;28;20309;-47
2023/04/08 08:27:42;;;;;;;14.27;10.95;;;;;;;4.49;100.00;102627.03;5048532;28;20257;-45
2023/04/08 08:30:08;;;;;;;13.60;11.43;;;;;;;4.49;100.00;102634.13;5048416;28;20194;-48
2023/04/08 08:32:34;;;;;;;13.25;11.75;;;;;;;4.57;100.00;102632.47;5046733;28;20593;-47
2023/04/08 08:35:00;;;;;;;14.50;11.40;;;;;;;4.62;100.00;102635.19;5044448;28;20183;-47
2023/04/08 08:37:26;;;;;;;16.40;12.95;;;;;;;4.58;100.00;102628.06;5045349;28;20207;-45
2023/04/08 08:39:51;;;;;;;14.40;12.00;;;;;;;4.54;100.00;102643.03;5048013;28;20361;-46
2023/04/08 08:42:19;;;;;;;14.45;11.88;;;;;;;4.39;100.00;102632.16;5049626;28;20622;-46
2023/04/08 08:44:45;;;;;;;16.92;12.23;;;;;;;4.69;100.00;102637.97;5050229;28;20179;-46
2023/04/08 08:47:10;;;;;;;15.55;11.65;;;;;;;4.72;100.00;102629.13;5049393;28;20631;-46
2023/04/08 08:49:36;;;;;;;13.55;10.93;;;;;;;4.68;100.00;102635.28;5049493;28;20561;-47
2023/04/08 08:52:02;;;;;;;14.63;11.68;;;;;;;4.75;100.00;102639.81;5050850;28;20552;-45
2023/04/08 08:54:27;;;;;;;16.90;13.07;;;;;;;4.91;100.00;102649.78;5051135;28;20210;-47
2023/04/08 08:56:53;;;;;;;17.42;13.18;;;;;;;4.75;100.00;102631.88;5051050;28;20288;-46
2023/04/08 08:59:18;;;;;;;14.45;12.25;;;;;;;4.70;100.00;102633.53;5051734;28;20195;-47
2023/04/08 09:01:44;;;;;;;15.25;12.32;;;;;;;4.85;100.00;102635.53;5051130;28;20195;-45
2023/04/08 09:04:09;;;;;;;15.85;11.80;;;;;;;4.95;100.00;102630.38;5050598;28;20209;-46
2023/04/08 09:06:36;;;;;;;17.02;11.75;;;;;;;5.04;100.00;102628.72;5051564;28;20645;-47
2023/04/08 09:09:04;;;;;;;13.70;11.55;;;;;;;4.94;100.00;102633.00;5051375;28;20191;-46
2023/04/08 09:11:31;;;;;;;17.30;13.35;;;;;;;4.94;100.00;102646.28;5050427;28;20260;-45
2023/04/08 09:13:56;;;;;;;16.05;12.35;;;;;;;4.80;100.00;102638.13;5051315;28;20207;-45
2023/04/08 09:16:22;;;;;;;15.73;12.35;;;;;;;4.72;100.00;102637.09;5053758;28;20265;-45
2023/04/08 09:18:48;;;;;;;14.40;11.23;;;;;;;4.68;100.00;102651.19;5051318;28;20211;-45
2023/04/08 09:21:16;;;;;;;14.70;11.75;;;;;;;4.57;100.00;102648.41;5049914;28;20199;-46
2023/04/08 09:23:46;;;;;;;18.25;11.50;;;;;;;4.70;100.00;102646.81;5050415;28;20183;-46
2023/04/08 09:26:18;;;;;;;12.80;11.32;;;;;;;4.72;100.00;102653.97;5050471;28;20187;-46
2023/04/08 09:28:57;;;;;;;11.90;10.57;;;;;;;4.72;100.00;102658.34;5048749;28;20207;-46
2023/04/08 09:31:26;;;;;;;12.98;11.10;;;;;;;4.81;100.00;102647.88;5051271;28;20175;-44
2023/04/08 09:33:54;;;;;;;13.10;10.98;;;;;;;4.98;100.00;102663.16;5050946;28;20320;-45
2023/04/08 09:36:20;;;;;;;12.50;10.07;;;;;;;5.17;100.00;102659.91;5048719;28;20184;-42
2023/04/08 09:38:46;;;;;;;13.27;10.55;;;;;;;5.25;100.00;102655.59;5050361;28;20211;-42
2023/04/08 09:41:16;;;;;;;12.32;10.02;;;;;;;5.23;100.00;102669.72;5050146;28;20191;-41
2023/04/08 09:43:53;;;;;;;12.25;9.77;;;;;;;5.06;100.00;102666.84;5048014;28;20187;-44
2023/04/08 09:46:26;;;;;;;17.67;11.55;;;;;;;5.06;100.00;102661.53;5048384;28;20593;-44
2023/04/08 09:49:01;;;;;;;12.05;10.70;;;;;;;5.33;100.00;102669.84;5051055;28;20207;-44
2023/04/08 09:51:33;;;;;;;13.02;10.90;;;;;;;5.19;100.00;102663.47;5047545;28;20660;-43
2023/04/08 09:54:01;;;;;;;12.75;10.63;;;;;;;5.43;100.00;102664.66;5050653;28;20267;-46
2023/04/08 09:56:40;;;;;;;16.48;10.40;;;;;;;5.30;100.00;102671.59;5050761;28;20181;-44
2023/04/08 09:59:13;;;;;;;15.63;10.93;;;;;;;5.16;100.00;102664.31;5050314;28;20558;-45
2023/04/08 10:01:44;;;;;;;13.70;10.35;;;;;;;5.04;100.00;102676.53;5047028;28;20408;-43
2023/04/08 10:04:14;;;;;;;12.63;10.82;;;;;;;5.16;100.00;102687.34;5044658;28;20191;-44
2023/04/08 10:06:40;;;;;;;13.95;11.35;;;;;;;5.23;100.00;102683.91;5049179;28;20664;-44
2023/04/08 10:09:07;;;;;;;15.70;10.90;;;;;;;5.31;100.00;102682.25;5050784;28;20191;-43
2023/04/08 10:11:33;;;;;;;11.90;10.57;;;;;;;5.12;100.00;102681.09;5050987;28;20621;-44
2023/04/08 10:13:59;;;;;;;13.35;11.18;;;;;;;5.21;100.00;102688.31;5050770;28;20711;-43
2023/04/08 10:16:26;;;;;;;13.75;11.60;;;;;;;5.61;100.00;102680.84;5050728;28;20274;-44
2023/04/08 10:18:55;;;;;;;13.65;10.85;;;;;;;5.79;100.00;102680.16;5051008;28;20211;-42
2023/04/08 10:21:31;;;;;;;13.68;11.07;;;;;;;5.53;100.00;102688.72;5049822;28;20201;-42
2023/04/08 10:23:58;;;;;;;15.90;11.07;;;;;;;5.46;100.00;102681.53;5049072;28;20218;-43
2023/04/08 10:26:41;;;;;;;13.73;11.60;;;;;;;5.28;100.00;102673.34;5048952;28;20266;-40
2023/04/08 10:29:28;;;;;;;12.23;10.18;;;;;;;5.37;100.00;102687.63;5049072;28;20175;-41
2023/04/08 10:31:53;;;;;;;11.32;10.13;;;;;;;5.34;100.00;102676.06;5050570;28;20183;-42
2023/04/08 10:34:21;;;;;;;12.60;11.30;;;;;;;5.43;100.00;102677.97;5050403;28;20214;-43
2023/04/08 10:36:48;;;;;;;14.20;11.10;;;;;;;5.40;100.00;102675.25;5048787;28;20187;-45
2023/04/08 10:39:17;;;;;;;16.52;11.52;;;;;;;5.40;100.00;102680.56;5050330;28;20183;-42
2023/04/08 10:41:44;;;;;;;15.98;12.23;;;;;;;5.26;100.00;102685.69;5044783;28;20183;-42
2023/04/08 10:44:21;;;;;;;13.93;11.55;;;;;;;5.36;100.00;102679.66;5048837;28;20179;-44
2023/04/08 10:46:48;;;;;;;15.30;12.65;;;;;;;5.24;100.00;102671.50;5050381;28;20182;-46
2023/04/08 10:49:15;;;;;;;16.63;12.32;;;;;;;5.39;100.00;102676.13;5050111;28;20201;-42
2023/04/08 10:51:43;;;;;;;13.77;12.38;;;;;;;5.41;100.00;102674.38;5046066;28;20586;-45
2023/04/08 10:54:11;;;;;;;15.40;12.55;;;;;;;5.24;100.00;102669.72;5050074;28;20200;-43
2023/04/08 10:56:47;;;;;;;12.57;11.13;;;;;;;5.46;100.00;102665.59;5049424;28;20562;-43
2023/04/08 10:59:15;;;;;;;15.43;12.15;;;;;;;5.65;100.00;102655.19;5050225;28;20225;-43
2023/04/08 11:01:43;;;;;;;15.40;11.98;;;;;;;5.94;100.00;102661.72;5049642;28;20401;-44
2023/04/08 11:04:14;;;;;;;17.67;13.05;;;;;;;5.64;100.00;102664.94;5049651;28;20576;-44
2023/04/08 11:06:42;;;;;;;16.48;11.70;;;;;;;5.81;100.00;102662.44;5049981;28;20195;-42
2023/04/08 11:09:07;;;;;;;15.80;12.25;;;;;;;5.58;100.00;102670.19;5049791;28;20537;-43
2023/04/08 11:11:33;;;;;;;12.55;11.20;;;;;;;5.67;100.00;102669.38;5050195;28;20244;-44